Mapleton, Kansas
Current Conditions -  °F | °C
As of 10:15 PM on Monday 22 Dec 2014 (Local Time) from KPTS Reporting Station
Clear Clear  
Wind Chill: 36°   Ceiling: Unl
Heat Index: 41°   Visibility: 10mi
Dew Point: 41°   Wind: 8mph
Humidity: 99%   Direction: 250°WSW
Pressure: 29.64"   Gusts: NA
Location:  38.02°N, 94.88°W
Report Text: KPTS 230415Z AUTO 25007KT 10SM CLR 05/05 A2964 RMK AO2 T00520050
Loading
Personal Weather Stations






























Interactive Weather Map New forecast layout! Learn more

10-Day Weather Forecast

Advertisements
Track Severe Weather on mobile